Time;durP1;ratioP1;P1;durP2;ratioP2;P2;SDS_P1;SDS_P2;PMS_P1;PMS_P2;Temp;Humidity;BMP_temperature;BMP_pressure;BME280_temperature;BME280_humidity;BME280_pressure;Samples;Min_cycle;Max_cycle;Signal;HPM_P1;HPM_P2
2023/06/05 00:02:17;;;;;;;4.90;3.22;;;;;;;;;;5040989;28;20446;-72
2023/06/05 00:04:43;;;;;;;6.35;3.10;;;;;;;;;;5041927;28;20036;-71
2023/06/05 00:07:09;;;;;;;4.05;2.97;;;;;;;;;;5039349;28;20057;-71
2023/06/05 00:09:36;;;;;;;5.63;3.40;;;;;;;;;;5041322;28;20034;-71
2023/06/05 00:12:02;;;;;;;5.30;3.22;;;;;;;;;;5043298;28;20064;-71
2023/06/05 00:14:28;;;;;;;4.22;2.78;;;;;;;;;;5036179;28;20048;-70
2023/06/05 00:16:56;;;;;;;4.70;3.25;;;;;;;;;;5026690;28;20395;-71
2023/06/05 00:19:22;;;;;;;3.60;3.13;;;;;;;;;;5040684;28;20033;-70
2023/06/05 00:21:50;;;;;;;3.58;3.28;;;;;;;;;;5040424;28;20378;-70
2023/06/05 00:24:16;;;;;;;5.03;3.42;;;;;;;;;;5039856;28;20090;-70
2023/06/05 00:26:42;;;;;;;8.32;3.70;;;;;;;;;;5041131;28;20037;-70
2023/06/05 00:29:08;;;;;;;7.20;4.13;;;;;;;;;;5036866;28;20044;-71
2023/06/05 00:31:34;;;;;;;5.63;3.10;;;;;;;;;;5042532;28;20041;-71
2023/06/05 00:34:00;;;;;;;5.20;3.55;;;;;;;;;;5039902;28;20077;-71
2023/06/05 00:36:27;;;;;;;3.53;3.17;;;;;;;;;;5040216;28;20085;-70
2023/06/05 00:38:54;;;;;;;6.20;3.65;;;;;;;;;;5042669;28;20036;-70
2023/06/05 00:41:20;;;;;;;4.07;3.33;;;;;;;;;;5041543;28;20045;-71
2023/06/05 00:43:46;;;;;;;6.13;3.10;;;;;;;;;;5038899;28;20080;-70
2023/06/05 00:46:13;;;;;;;5.20;3.17;;;;;;;;;;5041009;28;20033;-71
2023/06/05 00:48:41;;;;;;;4.60;3.70;;;;;;;;;;5040988;28;20079;-70
2023/06/05 00:51:10;;;;;;;7.07;3.95;;;;;;;;;;5037110;28;20487;-70
2023/06/05 00:53:36;;;;;;;5.63;3.00;;;;;;;;;;5040059;28;20352;-72
2023/06/05 00:56:02;;;;;;;5.60;3.78;;;;;;;;;;5042466;28;20433;-70
2023/06/05 00:58:29;;;;;;;6.85;3.67;;;;;;;;;;5042558;28;20021;-70
2023/06/05 01:00:55;;;;;;;11.48;4.47;;;;;;;;;;5037663;28;20049;-71
2023/06/05 01:03:22;;;;;;;6.00;3.33;;;;;;;;;;5040666;28;20086;-71
2023/06/05 01:05:49;;;;;;;4.22;2.95;;;;;;;;;;5041630;28;20107;-71
2023/06/05 01:08:16;;;;;;;8.20;3.50;;;;;;;;;;5041648;28;20037;-71
2023/06/05 01:10:43;;;;;;;5.40;3.22;;;;;;;;;;5041240;28;20033;-71
2023/06/05 01:13:26;;;;;;;7.38;3.63;;;;;;;;;;5040480;28;20087;-71
2023/06/05 01:15:54;;;;;;;5.82;3.63;;;;;;;;;;5040655;28;20471;-71
2023/06/05 01:18:22;;;;;;;5.80;4.35;;;;;;;;;;5038936;28;20614;-71
2023/06/05 01:20:48;;;;;;;5.53;3.97;;;;;;;;;;5039504;28;20031;-71
2023/06/05 01:23:14;;;;;;;4.85;4.00;;;;;;;;;;5038715;28;20312;-71
2023/06/05 01:25:41;;;;;;;6.05;3.58;;;;;;;;;;5042308;28;20510;-71
2023/06/05 01:28:11;;;;;;;4.95;3.95;;;;;;;;;;5043325;28;20025;-71
2023/06/05 01:30:41;;;;;;;6.43;3.90;;;;;;;;;;5041435;28;20057;-70
2023/06/05 01:33:07;;;;;;;9.55;4.75;;;;;;;;;;5041922;28;20036;-70
2023/06/05 01:35:34;;;;;;;7.45;4.80;;;;;;;;;;5038794;28;20438;-70
2023/06/05 01:38:02;;;;;;;7.75;4.35;;;;;;;;;;5038444;28;20581;-71
2023/06/05 01:40:30;;;;;;;4.25;3.35;;;;;;;;;;5055090;28;20273;-70
2023/06/05 01:42:57;;;;;;;5.10;3.28;;;;;;;;;;5042619;28;20124;-70
2023/06/05 01:45:23;;;;;;;10.65;3.53;;;;;;;;;;5040539;28;20107;-70
2023/06/05 01:47:49;;;;;;;6.43;3.50;;;;;;;;;;5041869;28;20037;-70
2023/06/05 01:50:16;;;;;;;3.90;3.30;;;;;;;;;;5039302;28;20474;-71
2023/06/05 01:52:44;;;;;;;6.35;3.95;;;;;;;;;;5041318;28;20033;-71
2023/06/05 01:55:16;;;;;;;5.47;4.38;;;;;;;;;;5040546;28;20390;-70
2023/06/05 01:57:43;;;;;;;8.67;4.13;;;;;;;;;;5038161;28;20055;-70
2023/06/05 02:00:12;;;;;;;6.05;3.38;;;;;;;;;;5052446;28;20033;-71
2023/06/05 02:02:41;;;;;;;11.77;4.03;;;;;;;;;;5038199;28;20021;-70
2023/06/05 02:05:08;;;;;;;5.90;3.70;;;;;;;;;;5040463;28;20114;-71
2023/06/05 02:07:37;;;;;;;11.88;4.15;;;;;;;;;;5040772;28;20044;-72
2023/06/05 02:10:05;;;;;;;6.38;3.33;;;;;;;;;;5040644;28;20021;-71
2023/06/05 02:12:31;;;;;;;6.22;3.17;;;;;;;;;;5039857;28;20021;-70
2023/06/05 02:14:57;;;;;;;6.60;3.40;;;;;;;;;;5037103;28;20094;-70
2023/06/05 02:17:24;;;;;;;5.10;3.15;;;;;;;;;;5038965;28;20021;-71
2023/06/05 02:19:50;;;;;;;4.82;3.60;;;;;;;;;;5036945;28;20029;-71
2023/06/05 02:22:16;;;;;;;4.03;2.67;;;;;;;;;;5021321;28;20061;-71
2023/06/05 02:24:42;;;;;;;4.25;2.70;;;;;;;;;;5038793;28;20396;-71
2023/06/05 02:27:10;;;;;;;6.60;3.70;;;;;;;;;;5036013;28;20040;-72
2023/06/05 02:29:36;;;;;;;4.75;3.20;;;;;;;;;;5039767;28;20023;-71
2023/06/05 02:32:02;;;;;;;6.60;3.03;;;;;;;;;;5040819;28;20032;-71
2023/06/05 02:34:28;;;;;;;3.58;3.08;;;;;;;;;;5037841;28;20040;-71
2023/06/05 02:36:55;;;;;;;4.22;3.20;;;;;;;;;;5039605;28;20398;-70
2023/06/05 02:39:21;;;;;;;7.68;3.22;;;;;;;;;;5038927;28;20032;-70
2023/06/05 02:41:47;;;;;;;4.22;3.80;;;;;;;;;;5039310;28;20561;-70
2023/06/05 02:44:13;;;;;;;5.10;3.40;;;;;;;;;;5041539;28;20151;-71
2023/06/05 02:46:39;;;;;;;4.00;3.20;;;;;;;;;;5037957;28;20054;-70
2023/06/05 02:49:05;;;;;;;5.20;3.17;;;;;;;;;;5040024;28;20686;-71
2023/06/05 02:51:32;;;;;;;4.40;3.15;;;;;;;;;;5038646;28;20483;-70
2023/06/05 02:53:58;;;;;;;5.40;2.85;;;;;;;;;;5036709;28;20060;-72
2023/06/05 02:56:26;;;;;;;6.05;3.20;;;;;;;;;;5036874;28;20126;-71
2023/06/05 02:58:52;;;;;;;3.15;2.85;;;;;;;;;;5038927;28;20021;-70
2023/06/05 03:01:21;;;;;;;5.30;3.58;;;;;;;;;;5037584;28;20466;-71
2023/06/05 03:03:48;;;;;;;5.07;3.38;;;;;;;;;;5039946;28;20036;-71
2023/06/05 03:06:17;;;;;;;7.13;3.60;;;;;;;;;;5036072;28;20368;-71
2023/06/05 03:08:43;;;;;;;4.20;3.80;;;;;;;;;;5038854;28;20033;-71
2023/06/05 03:11:09;;;;;;;6.93;3.60;;;;;;;;;;5039260;28;20453;-71
2023/06/05 03:13:35;;;;;;;5.30;3.83;;;;;;;;;;5040062;28;20059;-71
2023/06/05 03:16:02;;;;;;;9.02;4.40;;;;;;;;;;5033170;28;20304;-71
2023/06/05 03:18:28;;;;;;;6.50;4.20;;;;;;;;;;5035309;28;20061;-71
2023/06/05 03:20:55;;;;;;;7.22;5.03;;;;;;;;;;5036784;28;20060;-70
2023/06/05 03:23:28;;;;;;;6.65;4.63;;;;;;;;;;5037562;28;20515;-70
2023/06/05 03:25:54;;;;;;;7.47;5.07;;;;;;;;;;5037913;28;20432;-72
2023/06/05 03:28:21;;;;;;;5.68;4.72;;;;;;;;;;5038286;28;20502;-71
2023/06/05 03:30:48;;;;;;;7.35;3.80;;;;;;;;;;5036908;28;20068;-71
2023/06/05 03:33:14;;;;;;;4.90;3.50;;;;;;;;;;5038290;28;20033;-71
2023/06/05 03:35:42;;;;;;;3.55;2.85;;;;;;;;;;5037200;28;20068;-71
2023/06/05 03:38:08;;;;;;;5.28;3.00;;;;;;;;;;5038154;28;20479;-71
2023/06/05 03:40:34;;;;;;;3.35;3.05;;;;;;;;;;5038499;28;20039;-71
2023/06/05 03:43:00;;;;;;;5.53;3.20;;;;;;;;;;5038609;28;20037;-70
2023/06/05 03:45:27;;;;;;;4.07;3.10;;;;;;;;;;5036248;28;20029;-71
2023/06/05 03:47:54;;;;;;;3.50;2.65;;;;;;;;;;5037956;28;20496;-71
2023/06/05 03:50:20;;;;;;;4.15;3.00;;;;;;;;;;5037255;28;20021;-70
2023/06/05 03:52:52;;;;;;;3.63;2.55;;;;;;;;;;5037802;28;20041;-71
2023/06/05 03:55:19;;;;;;;4.20;2.08;;;;;;;;;;5035589;28;20028;-72
2023/06/05 03:57:45;;;;;;;3.25;2.00;;;;;;;;;;5035325;28;20079;-71
2023/06/05 04:00:14;;;;;;;4.00;1.98;;;;;;;;;;5032708;28;20033;-72
2023/06/05 04:02:40;;;;;;;3.25;2.40;;;;;;;;;;5033999;28;20029;-71
2023/06/05 04:05:11;;;;;;;4.18;2.55;;;;;;;;;;5041215;28;20033;-71
2023/06/05 04:07:37;;;;;;;4.47;2.22;;;;;;;;;;5036886;28;20061;-71
2023/06/05 04:10:03;;;;;;;3.92;2.20;;;;;;;;;;5040948;28;20057;-72
2023/06/05 04:12:29;;;;;;;3.40;2.38;;;;;;;;;;5050038;28;20102;-70
2023/06/05 04:14:55;;;;;;;2.97;2.47;;;;;;;;;;5048634;28;20041;-69
2023/06/05 04:17:21;;;;;;;25.05;15.90;;;;;;;;;;5033234;28;20505;-71
2023/06/05 04:19:47;;;;;;;15.23;8.55;;;;;;;;;;5038027;28;20052;-71
2023/06/05 04:22:13;;;;;;;4.03;3.05;;;;;;;;;;5047148;28;20060;-71
2023/06/05 04:24:40;;;;;;;5.13;2.33;;;;;;;;;;5049952;28;20049;-72
2023/06/05 04:27:08;;;;;;;6.72;2.78;;;;;;;;;;5051139;28;20025;-71
2023/06/05 04:29:34;;;;;;;4.38;2.40;;;;;;;;;;5048504;28;20218;-71
2023/06/05 04:32:00;;;;;;;3.95;2.60;;;;;;;;;;5046208;28;20044;-72
2023/06/05 04:34:26;;;;;;;5.03;2.50;;;;;;;;;;5039481;28;20131;-71
2023/06/05 04:36:52;;;;;;;3.75;2.25;;;;;;;;;;5038929;28;20160;-72
2023/06/05 04:39:18;;;;;;;3.22;2.38;;;;;;;;;;5047317;28;20494;-71
2023/06/05 04:41:46;;;;;;;4.30;2.47;;;;;;;;;;5051059;28;22950;-72
2023/06/05 04:44:16;;;;;;;5.65;2.08;;;;;;;;;;5050086;28;20253;-71
2023/06/05 04:46:46;;;;;;;2.92;2.58;;;;;;;;;;5043674;28;20115;-70
2023/06/05 04:49:13;;;;;;;5.45;2.83;;;;;;;;;;5040681;28;20486;-71
2023/06/05 04:51:39;;;;;;;3.67;2.13;;;;;;;;;;5043549;28;20036;-71
2023/06/05 04:54:05;;;;;;;3.92;2.22;;;;;;;;;;5056607;28;20071;-71
2023/06/05 04:56:35;;;;;;;3.63;2.15;;;;;;;;;;5048762;28;20025;-71
2023/06/05 04:59:05;;;;;;;4.72;2.40;;;;;;;;;;5045714;28;20113;-71
2023/06/05 05:01:32;;;;;;;6.53;2.47;;;;;;;;;;5037195;28;20539;-69
2023/06/05 05:03:59;;;;;;;11.18;7.57;;;;;;;;;;5040874;28;20065;-71
2023/06/05 05:06:26;;;;;;;4.88;3.35;;;;;;;;;;5045497;28;20039;-71
2023/06/05 05:08:52;;;;;;;3.60;2.53;;;;;;;;;;5039630;28;20323;-70
2023/06/05 05:11:18;;;;;;;3.05;2.10;;;;;;;;;;5043992;28;20033;-72
2023/06/05 05:13:44;;;;;;;3.47;2.55;;;;;;;;;;5049178;28;20455;-70
2023/06/05 05:16:13;;;;;;;3.67;2.92;;;;;;;;;;5040397;28;20037;-73
2023/06/05 05:18:40;;;;;;;4.03;3.08;;;;;;;;;;5044598;28;20064;-71
2023/06/05 05:21:06;;;;;;;50.00;32.60;;;;;;;;;;5050586;28;20530;-70
2023/06/05 05:23:33;;;;;;;5.45;3.63;;;;;;;;;;5047401;28;20074;-71
2023/06/05 05:25:59;;;;;;;2.15;1.90;;;;;;;;;;5033978;28;20029;-71
2023/06/05 05:28:25;;;;;;;2.13;1.75;;;;;;;;;;5046546;28;20179;-71
2023/06/05 05:30:52;;;;;;;2.67;1.63;;;;;;;;;;5036740;28;20033;-71
2023/06/05 05:33:18;;;;;;;2.63;1.25;;;;;;;;;;5035890;28;20041;-71
2023/06/05 05:35:45;;;;;;;2.60;1.38;;;;;;;;;;5037424;28;20041;-71
2023/06/05 05:38:11;;;;;;;3.15;1.30;;;;;;;;;;5033233;28;20090;-70
2023/06/05 05:40:37;;;;;;;1.73;1.35;;;;;;;;;;5035530;28;20025;-71
2023/06/05 05:43:03;;;;;;;1.25;1.05;;;;;;;;;;5034494;28;20045;-70
2023/06/05 05:45:29;;;;;;;2.22;1.20;;;;;;;;;;5048014;28;20031;-70
2023/06/05 05:47:55;;;;;;;1.70;1.40;;;;;;;;;;5045980;28;20033;-69
2023/06/05 05:50:21;;;;;;;1.58;1.48;;;;;;;;;;5044278;28;20095;-71
2023/06/05 05:52:47;;;;;;;3.90;1.75;;;;;;;;;;5038116;28;20041;-69
2023/06/05 05:55:13;;;;;;;2.63;1.50;;;;;;;;;;5032153;28;20061;-70
2023/06/05 05:57:39;;;;;;;12.48;8.05;;;;;;;;;;5030118;28;20095;-70
2023/06/05 06:00:12;;;;;;;4.38;2.90;;;;;;;;;;5030726;28;20037;-71
2023/06/05 06:02:39;;;;;;;4.05;1.40;;;;;;;;;;5033957;28;20079;-70
2023/06/05 06:05:05;;;;;;;2.72;1.58;;;;;;;;;;5036509;28;20036;-71
2023/06/05 06:07:31;;;;;;;3.47;1.50;;;;;;;;;;5035493;28;20053;-72
2023/06/05 06:09:58;;;;;;;2.00;1.33;;;;;;;;;;5040608;28;20482;-71
2023/06/05 06:12:24;;;;;;;2.90;1.00;;;;;;;;;;5049371;28;20021;-74
2023/06/05 06:14:51;;;;;;;2.35;1.48;;;;;;;;;;5050286;28;20108;-74
2023/06/05 06:17:17;;;;;;;2.50;1.70;;;;;;;;;;5050553;28;20646;-71
2023/06/05 06:19:43;;;;;;;5.03;1.50;;;;;;;;;;5043452;28;20625;-72
2023/06/05 06:22:11;;;;;;;2.20;1.73;;;;;;;;;;5038530;28;20312;-71
2023/06/05 06:24:41;;;;;;;2.95;1.65;;;;;;;;;;5041290;28;20092;-70
2023/06/05 06:27:09;;;;;;;5.57;1.55;;;;;;;;;;5041143;28;20020;-71
2023/06/05 06:29:35;;;;;;;1.85;1.33;;;;;;;;;;5038420;28;20039;-71
2023/06/05 06:32:01;;;;;;;2.05;1.50;;;;;;;;;;5039650;28;20033;-72
2023/06/05 06:34:27;;;;;;;4.57;2.20;;;;;;;;;;5037371;28;20036;-72
2023/06/05 06:36:53;;;;;;;4.50;2.85;;;;;;;;;;5040718;28;20063;-73
2023/06/05 06:39:19;;;;;;;3.05;1.48;;;;;;;;;;5036107;28;20037;-73
2023/06/05 06:41:46;;;;;;;2.47;1.40;;;;;;;;;;5037862;28;20021;-73
2023/06/05 06:44:12;;;;;;;3.05;1.25;;;;;;;;;;5047031;28;20036;-73
2023/06/05 06:46:38;;;;;;;2.72;1.50;;;;;;;;;;5036859;28;20044;-73
2023/06/05 06:49:06;;;;;;;1.85;1.60;;;;;;;;;;5038997;28;20389;-74
2023/06/05 06:51:32;;;;;;;2.03;1.25;;;;;;;;;;5038658;28;20040;-72
2023/06/05 06:53:58;;;;;;;1.67;1.13;;;;;;;;;;5037931;28;20621;-71
2023/06/05 06:56:25;;;;;;;1.85;1.20;;;;;;;;;;5035049;28;20037;-72
2023/06/05 06:58:54;;;;;;;8.00;4.75;;;;;;;;;;5046047;28;20530;-72
2023/06/05 07:01:20;;;;;;;6.85;4.05;;;;;;;;;;5043975;28;20360;-72
2023/06/05 07:03:46;;;;;;;2.30;1.38;;;;;;;;;;5047869;28;20570;-73
2023/06/05 07:06:13;;;;;;;2.65;1.60;;;;;;;;;;5035224;28;20033;-72
2023/06/05 07:08:39;;;;;;;2.13;1.48;;;;;;;;;;5038644;28;20033;-72
2023/06/05 07:11:05;;;;;;;2.67;1.42;;;;;;;;;;5042561;28;20044;-72
2023/06/05 07:13:31;;;;;;;2.75;1.40;;;;;;;;;;5042758;28;20425;-71
2023/06/05 07:15:57;;;;;;;2.33;1.33;;;;;;;;;;5048888;28;20037;-72
2023/06/05 07:18:23;;;;;;;3.80;1.52;;;;;;;;;;5048475;28;20029;-73
2023/06/05 07:20:49;;;;;;;2.47;1.30;;;;;;;;;;5049829;28;20116;-74
2023/06/05 07:23:18;;;;;;;2.75;1.30;;;;;;;;;;5048724;28;20107;-73
2023/06/05 07:25:44;;;;;;;3.95;1.50;;;;;;;;;;5048838;28;20061;-72
2023/06/05 07:28:11;;;;;;;1.77;1.20;;;;;;;;;;5039154;28;20076;-73
2023/06/05 07:30:37;;;;;;;1.83;1.38;;;;;;;;;;5035992;28;20148;-72
2023/06/05 07:33:04;;;;;;;1.58;1.48;;;;;;;;;;5033979;28;20037;-74
2023/06/05 07:35:30;;;;;;;1.60;1.30;;;;;;;;;;5035766;28;20115;-72
2023/06/05 07:37:56;;;;;;;1.75;1.25;;;;;;;;;;5020646;28;20116;-72
2023/06/05 07:40:22;;;;;;;3.58;1.50;;;;;;;;;;5039790;28;20113;-74
2023/06/05 07:42:48;;;;;;;5.13;1.90;;;;;;;;;;5041759;28;20121;-73
2023/06/05 07:45:14;;;;;;;2.15;1.20;;;;;;;;;;5040331;28;20410;-74
2023/06/05 07:47:40;;;;;;;3.00;1.60;;;;;;;;;;5039165;28;22161;-74
2023/06/05 07:50:06;;;;;;;2.58;1.42;;;;;;;;;;5039280;28;20037;-73
2023/06/05 07:52:33;;;;;;;3.67;1.60;;;;;;;;;;5039390;28;20029;-71
2023/06/05 07:54:59;;;;;;;7.47;6.32;;;;;;;;;;5039746;28;20055;-74
2023/06/05 07:57:25;;;;;;;7.53;4.32;;;;;;;;;;5037210;28;20070;-74
2023/06/05 07:59:52;;;;;;;1.80;1.50;;;;;;;;;;5036144;28;20112;-72
2023/06/05 08:02:18;;;;;;;2.17;1.48;;;;;;;;;;5040376;28;20061;-72
2023/06/05 08:04:44;;;;;;;3.08;1.42;;;;;;;;;;5040690;28;20036;-72
2023/06/05 08:07:10;;;;;;;2.88;1.48;;;;;;;;;;5041277;28;20482;-73
2023/06/05 08:09:37;;;;;;;2.28;1.33;;;;;;;;;;5039932;28;20040;-74
2023/06/05 08:12:04;;;;;;;18.25;11.38;;;;;;;;;;5040850;28;20028;-75
2023/06/05 08:14:30;;;;;;;6.10;3.22;;;;;;;;;;5034320;28;20080;-74
2023/06/05 08:16:56;;;;;;;3.85;1.77;;;;;;;;;;5039642;28;20069;-73
2023/06/05 08:19:22;;;;;;;2.10;1.40;;;;;;;;;;5042102;28;20112;-72
2023/06/05 08:21:52;;;;;;;2.78;1.70;;;;;;;;;;5040644;28;20482;-71
2023/06/05 08:24:18;;;;;;;2.97;1.70;;;;;;;;;;5046270;28;20440;-72
2023/06/05 08:26:44;;;;;;;4.90;2.05;;;;;;;;;;5044174;28;20056;-71
2023/06/05 08:29:12;;;;;;;3.10;1.83;;;;;;;;;;5039965;28;20060;-71
2023/06/05 08:31:38;;;;;;;3.70;2.10;;;;;;;;;;5054881;28;20041;-71
2023/06/05 08:34:05;;;;;;;2.65;1.63;;;;;;;;;;5044140;28;20037;-71
2023/06/05 08:36:32;;;;;;;3.70;2.00;;;;;;;;;;5039935;28;20047;-71
2023/06/05 08:39:02;;;;;;;3.03;1.80;;;;;;;;;;5039602;28;20033;-71
2023/06/05 08:41:30;;;;;;;3.70;1.50;;;;;;;;;;5041382;28;20117;-71
2023/06/05 08:43:56;;;;;;;3.90;2.05;;;;;;;;;;5041283;28;20043;-71
2023/06/05 08:46:22;;;;;;;3.90;2.20;;;;;;;;;;5041612;28;20083;-71
2023/06/05 08:48:53;;;;;;;2.65;1.92;;;;;;;;;;5040714;28;20046;-71
2023/06/05 08:51:19;;;;;;;3.00;1.85;;;;;;;;;;5042086;28;20061;-71
2023/06/05 08:53:52;;;;;;;3.22;2.00;;;;;;;;;;5040157;28;20142;-71
2023/06/05 08:56:18;;;;;;;2.50;2.08;;;;;;;;;;5042526;28;20029;-72
2023/06/05 08:58:45;;;;;;;3.38;1.90;;;;;;;;;;5039599;28;20088;-72
2023/06/05 09:01:11;;;;;;;2.00;1.80;;;;;;;;;;5043309;28;20037;-71
2023/06/05 09:03:37;;;;;;;3.15;1.67;;;;;;;;;;5042308;28;20370;-72
2023/06/05 09:06:04;;;;;;;3.38;2.05;;;;;;;;;;5042316;28;20235;-71
2023/06/05 09:08:34;;;;;;;3.97;2.08;;;;;;;;;;5028556;28;20037;-71
2023/06/05 09:11:18;;;;;;;4.30;2.15;;;;;;;;;;5037800;28;20036;-71
2023/06/05 09:13:45;;;;;;;2.80;1.80;;;;;;;;;;5037445;28;20029;-71
2023/06/05 09:16:11;;;;;;;3.67;2.00;;;;;;;;;;5040330;28;20036;-71
2023/06/05 09:18:52;;;;;;;2.40;1.80;;;;;;;;;;5041566;28;20071;-71
2023/06/05 09:21:18;;;;;;;3.15;1.88;;;;;;;;;;5040109;28;20045;-71
2023/06/05 09:23:45;;;;;;;3.88;2.42;;;;;;;;;;5035760;28;20167;-72
2023/06/05 09:26:13;;;;;;;7.47;2.13;;;;;;;;;;5038249;28;20541;-72
2023/06/05 09:28:55;;;;;;;6.00;2.50;;;;;;;;;;5037129;28;20470;-71
2023/06/05 09:31:24;;;;;;;5.38;1.80;;;;;;;;;;5038511;28;20037;-71
2023/06/05 09:33:56;;;;;;;3.33;2.08;;;;;;;;;;5044733;28;20052;-71
2023/06/05 09:36:30;;;;;;;4.50;1.95;;;;;;;;;;5040349;28;20064;-71
2023/06/05 09:38:56;;;;;;;3.75;1.83;;;;;;;;;;5039406;28;20411;-70
2023/06/05 09:41:23;;;;;;;3.95;1.90;;;;;;;;;;5039663;28;20048;-70
2023/06/05 09:43:49;;;;;;;3.22;1.95;;;;;;;;;;5037045;28;20045;-71
2023/06/05 09:46:16;;;;;;;4.95;1.98;;;;;;;;;;5021544;28;20083;-72
2023/06/05 09:48:46;;;;;;;4.07;2.13;;;;;;;;;;5041580;28;20036;-71
2023/06/05 09:51:16;;;;;;;3.28;2.15;;;;;;;;;;5038877;28;20029;-71
2023/06/05 09:53:44;;;;;;;3.10;2.08;;;;;;;;;;5052711;28;20608;-70
2023/06/05 09:56:15;;;;;;;3.80;1.90;;;;;;;;;;5039702;28;20048;-71
2023/06/05 09:58:43;;;;;;;2.80;1.75;;;;;;;;;;5043274;28;20036;-72
2023/06/05 10:01:10;;;;;;;3.63;1.90;;;;;;;;;;5050345;28;20113;-71
2023/06/05 10:03:37;;;;;;;5.15;3.10;;;;;;;;;;5049755;28;20060;-71
2023/06/05 10:06:05;;;;;;;5.13;2.00;;;;;;;;;;5050373;28;20103;-70
2023/06/05 10:08:31;;;;;;;3.08;2.00;;;;;;;;;;5038889;28;20442;-71
2023/06/05 10:10:57;;;;;;;3.63;2.08;;;;;;;;;;5037109;28;20047;-69
2023/06/05 10:13:23;;;;;;;3.70;2.00;;;;;;;;;;5037727;28;20132;-71
2023/06/05 10:15:52;;;;;;;2.75;2.10;;;;;;;;;;5034990;28;20045;-70
2023/06/05 10:18:19;;;;;;;2.90;2.03;;;;;;;;;;5021123;28;20386;-71
2023/06/05 10:20:47;;;;;;;2.55;2.30;;;;;;;;;;5039715;28;20056;-70
2023/06/05 10:23:16;;;;;;;4.78;2.13;;;;;;;;;;5032566;28;20412;-71
2023/06/05 10:25:42;;;;;;;8.85;2.15;;;;;;;;;;5037873;28;20198;-71
2023/06/05 10:28:14;;;;;;;3.08;2.25;;;;;;;;;;5037810;28;20063;-70
2023/06/05 10:30:59;;;;;;;4.25;2.55;;;;;;;;;;5038489;28;20482;-69
2023/06/05 10:33:32;;;;;;;5.68;2.35;;;;;;;;;;5038597;28;20041;-69
2023/06/05 10:36:24;;;;;;;4.57;1.77;;;;;;;;;;5035678;28;20021;-71
2023/06/05 10:38:51;;;;;;;2.33;2.13;;;;;;;;;;5032284;28;20068;-70
2023/06/05 10:41:18;;;;;;;2.67;2.42;;;;;;;;;;5038571;28;20393;-69
2023/06/05 10:43:50;;;;;;;3.13;2.30;;;;;;;;;;5037225;28;20124;-69
2023/06/05 10:46:30;;;;;;;3.10;1.85;;;;;;;;;;5038779;28;20029;-70
2023/06/05 10:49:06;;;;;;;3.42;2.45;;;;;;;;;;5038957;28;20121;-70
2023/06/05 10:51:33;;;;;;;3.28;2.60;;;;;;;;;;5036392;28;20025;-70
2023/06/05 10:54:00;;;;;;;2.58;2.38;;;;;;;;;;5037175;28;20075;-70
2023/06/05 10:56:45;;;;;;;2.58;2.17;;;;;;;;;;5035903;28;20102;-72
2023/06/05 10:59:14;;;;;;;5.90;1.83;;;;;;;;;;5040633;28;20044;-71
2023/06/05 11:01:41;;;;;;;3.70;2.28;;;;;;;;;;5053063;28;20025;-71
2023/06/05 11:04:07;;;;;;;3.30;2.15;;;;;;;;;;5047003;28;20037;-72
2023/06/05 11:06:33;;;;;;;2.17;1.98;;;;;;;;;;5049579;28;20029;-72
2023/06/05 11:09:09;;;;;;;5.18;2.10;;;;;;;;;;5037834;28;20052;-72
2023/06/05 11:11:53;;;;;;;3.42;2.17;;;;;;;;;;5051132;28;20033;-72
2023/06/05 11:14:20;;;;;;;2.30;2.10;;;;;;;;;;5052875;28;20033;-71
2023/06/05 11:16:46;;;;;;;2.70;2.17;;;;;;;;;;5052007;28;20045;-71
2023/06/05 11:19:35;;;;;;;3.15;2.50;;;;;;;;;;5053218;28;20494;-72
2023/06/05 11:22:04;;;;;;;2.90;2.25;;;;;;;;;;5051880;28;20506;-72
2023/06/05 11:24:30;;;;;;;3.03;2.58;;;;;;;;;;5053890;28;20433;-71
2023/06/05 11:26:56;;;;;;;5.40;2.55;;;;;;;;;;5052025;28;20013;-72
2023/06/05 11:29:25;;;;;;;2.95;2.30;;;;;;;;;;5045710;28;20060;-72
2023/06/05 11:31:51;;;;;;;3.75;2.95;;;;;;;;;;5049333;28;20064;-72
2023/06/05 11:34:17;;;;;;;3.13;2.42;;;;;;;;;;5051008;28;20037;-71
2023/06/05 11:36:47;;;;;;;3.13;2.17;;;;;;;;;;5041695;28;20048;-71
2023/06/05 11:39:13;;;;;;;2.20;1.98;;;;;;;;;;5044308;28;20055;-73
2023/06/05 11:41:51;;;;;;;3.13;2.25;;;;;;;;;;5042739;28;20055;-71
2023/06/05 11:44:32;;;;;;;3.28;2.28;;;;;;;;;;5047273;28;20029;-71
2023/06/05 11:46:58;;;;;;;3.38;2.10;;;;;;;;;;5040737;28;20060;-72
2023/06/05 11:49:27;;;;;;;5.57;2.10;;;;;;;;;;5048788;28;20370;-72
2023/06/05 11:51:54;;;;;;;3.15;1.88;;;;;;;;;;5041382;28;20056;-72
2023/06/05 11:54:27;;;;;;;7.40;2.05;;;;;;;;;;5048044;28;20091;-71
2023/06/05 11:56:57;;;;;;;2.75;2.25;;;;;;;;;;5036102;28;20432;-71
2023/06/05 11:59:24;;;;;;;3.60;2.10;;;;;;;;;;5038518;28;20489;-71
2023/06/05 12:01:53;;;;;;;2.90;1.88;;;;;;;;;;5040297;28;20429;-71
2023/06/05 12:04:20;;;;;;;2.10;1.90;;;;;;;;;;5048941;28;20029;-72
2023/06/05 12:06:47;;;;;;;4.07;1.80;;;;;;;;;;5050213;28;20116;-72
2023/06/05 12:09:15;;;;;;;4.47;2.00;;;;;;;;;;5051299;28;20037;-72
2023/06/05 12:11:42;;;;;;;2.83;1.85;;;;;;;;;;5052602;28;20100;-72
2023/06/05 12:14:10;;;;;;;3.75;2.25;;;;;;;;;;5052238;28;20029;-72
2023/06/05 12:16:37;;;;;;;4.53;2.08;;;;;;;;;;5053022;28;20075;-71
2023/06/05 12:19:12;;;;;;;2.42;2.20;;;;;;;;;;5068719;28;20662;-71
2023/06/05 12:21:38;;;;;;;2.13;1.92;;;;;;;;;;5053152;28;20064;-70
2023/06/05 12:24:05;;;;;;;3.60;2.25;;;;;;;;;;5052142;28;20033;-71
2023/06/05 12:26:48;;;;;;;2.13;1.92;;;;;;;;;;5053195;28;20036;-70
2023/06/05 12:29:16;;;;;;;4.47;2.30;;;;;;;;;;5052535;28;20029;-71
2023/06/05 12:31:42;;;;;;;2.67;1.83;;;;;;;;;;5052404;28;20040;-70
2023/06/05 12:34:08;;;;;;;5.05;1.67;;;;;;;;;;5053040;28;20033;-71
2023/06/05 12:36:43;;;;;;;4.22;2.10;;;;;;;;;;5040434;28;20052;-71
2023/06/05 12:39:12;;;;;;;2.10;1.90;;;;;;;;;;5044341;28;20037;-71
2023/06/05 12:41:39;;;;;;;2.92;1.90;;;;;;;;;;5044393;28;20394;-70
2023/06/05 12:44:06;;;;;;;1.95;1.75;;;;;;;;;;5047858;28;20056;-70
2023/06/05 12:46:32;;;;;;;4.88;1.80;;;;;;;;;;5040395;28;20056;-72
2023/06/05 12:48:59;;;;;;;1.98;1.50;;;;;;;;;;5043712;28;20033;-72
2023/06/05 12:51:26;;;;;;;4.70;2.05;;;;;;;;;;5042116;28;20395;-69
2023/06/05 12:53:52;;;;;;;3.35;1.88;;;;;;;;;;5042874;28;20417;-71
2023/06/05 12:56:18;;;;;;;2.33;1.58;;;;;;;;;;5038676;28;20049;-71
2023/06/05 12:58:45;;;;;;;2.78;2.55;;;;;;;;;;5042558;28;20104;-69
2023/06/05 13:01:11;;;;;;;2.47;1.80;;;;;;;;;;5055552;28;20044;-69
2023/06/05 13:03:37;;;;;;;2.90;2.30;;;;;;;;;;5048718;28;20033;-69
2023/06/05 13:06:03;;;;;;;3.45;1.80;;;;;;;;;;5049224;28;20036;-69
2023/06/05 13:08:30;;;;;;;2.85;1.50;;;;;;;;;;5050508;28;20479;-69
2023/06/05 13:10:56;;;;;;;2.53;1.85;;;;;;;;;;5050906;28;20478;-69
2023/06/05 13:13:22;;;;;;;2.15;1.65;;;;;;;;;;5045183;28;20114;-70
2023/06/05 13:15:48;;;;;;;3.28;2.53;;;;;;;;;;5039368;28;20526;-69
2023/06/05 13:18:14;;;;;;;6.70;4.22;;;;;;;;;;5039257;28;20517;-69
2023/06/05 13:20:40;;;;;;;3.28;2.20;;;;;;;;;;5040111;28;20163;-71
2023/06/05 13:23:07;;;;;;;3.30;2.28;;;;;;;;;;5033012;28;20048;-70
2023/06/05 13:25:33;;;;;;;2.38;2.10;;;;;;;;;;5038207;28;20144;-71
2023/06/05 13:27:59;;;;;;;2.08;1.88;;;;;;;;;;5040443;28;20162;-70
2023/06/05 13:30:26;;;;;;;2.85;1.80;;;;;;;;;;5020421;28;20482;-70
2023/06/05 13:32:53;;;;;;;4.55;2.13;;;;;;;;;;5039191;28;23211;-71
2023/06/05 13:35:19;;;;;;;2.53;2.03;;;;;;;;;;5041281;28;20167;-71
2023/06/05 13:37:48;;;;;;;3.50;2.60;;;;;;;;;;5038938;28;20037;-74
2023/06/05 13:40:15;;;;;;;4.97;2.28;;;;;;;;;;5041670;28;20037;-74
2023/06/05 13:42:41;;;;;;;2.40;2.15;;;;;;;;;;5037137;28;20225;-73
2023/06/05 13:45:08;;;;;;;3.55;2.10;;;;;;;;;;5038331;28;20461;-73
2023/06/05 13:47:34;;;;;;;5.05;2.30;;;;;;;;;;5039141;28;20418;-73
2023/06/05 13:50:00;;;;;;;2.92;2.10;;;;;;;;;;5041691;28;20487;-72
2023/06/05 13:52:26;;;;;;;2.13;1.92;;;;;;;;;;5037718;28;20501;-73
2023/06/05 13:54:52;;;;;;;3.67;2.88;;;;;;;;;;5037016;28;20057;-73
2023/06/05 13:57:18;;;;;;;4.80;2.65;;;;;;;;;;5040128;28;20409;-73
2023/06/05 13:59:44;;;;;;;4.65;2.55;;;;;;;;;;5041084;28;20040;-70
2023/06/05 14:02:11;;;;;;;2.25;2.00;;;;;;;;;;5046822;28;20048;-72
2023/06/05 14:04:37;;;;;;;2.42;2.17;;;;;;;;;;5051536;28;20037;-71
2023/06/05 14:07:03;;;;;;;2.53;1.98;;;;;;;;;;5043423;28;20033;-70
2023/06/05 14:09:29;;;;;;;7.97;2.13;;;;;;;;;;5038720;28;20025;-68
2023/06/05 14:11:56;;;;;;;9.82;3.42;;;;;;;;;;5045074;28;20033;-67
2023/06/05 14:14:23;;;;;;;2.85;2.00;;;;;;;;;;5049256;28;20497;-67
2023/06/05 14:16:50;;;;;;;3.78;2.40;;;;;;;;;;5049681;28;20041;-68
2023/06/05 14:19:16;;;;;;;3.17;2.30;;;;;;;;;;5047118;28;20082;-67
2023/06/05 14:21:42;;;;;;;2.83;2.42;;;;;;;;;;5046224;28;20050;-69
2023/06/05 14:24:08;;;;;;;6.65;2.53;;;;;;;;;;5038704;28;20037;-69
2023/06/05 14:26:34;;;;;;;5.95;3.90;;;;;;;;;;5040007;28;20063;-67
2023/06/05 14:29:00;;;;;;;3.30;2.55;;;;;;;;;;5046810;28;20031;-67
2023/06/05 14:31:28;;;;;;;3.42;2.97;;;;;;;;;;5050180;28;20100;-68
2023/06/05 14:33:54;;;;;;;4.95;2.90;;;;;;;;;;5044587;28;20025;-69
2023/06/05 14:36:20;;;;;;;3.92;3.00;;;;;;;;;;5029312;28;20128;-72
2023/06/05 14:38:46;;;;;;;11.13;3.15;;;;;;;;;;5043601;28;20064;-70
2023/06/05 14:41:12;;;;;;;4.45;2.60;;;;;;;;;;5042775;28;20536;-71
2023/06/05 14:43:38;;;;;;;5.57;3.10;;;;;;;;;;5036601;28;20378;-71
2023/06/05 14:46:04;;;;;;;3.28;2.80;;;;;;;;;;5036806;28;20049;-73